Portada
METAR-TAF:

METAR-TAF

Aeroports :

Koror, Babeldaob, Palau

latitud: 07-22N, longitud: 134-32E, altitud: 54 m

Observació

L'informe es va fer fa 45 minuts, a les 20:50 UTC
Vent 5 kt del Est/Nord-Est
Temperatura 26°C
Humitat 89%
Pressió 1009 hPa
Visibilitat: 24.1 km
Núvols disperses a una alçada de 1600 ft
Cel ennuvolat a una alçada de 12000 ft
Cel ennuvolat a una alçada de 30000 ft

METAR: PTRO 112050Z 06005KT 15SM SCT016 BKN120 BKN300 26/24 A2980

Hora: 06:35 (21:35 UTC)

Pronòstic

L'informe es va fer fa 4 hores i 7 minuts, a les 17:28 UTC
Pronòstic vàlid del 11 a les 18 UTC al 12 a les 18 UTC
Vent 10 kt del Est
Visibilitat: 10 km
Núvols disperses a una alçada de 1600 ft
Núvols disperses a una alçada de 4000 ft

TAF: PTRO 111728Z 1118/1218 09010KT P6SM SCT016 SCT040

Observacions i pronòstics meteorològics de més de 4000 aeroports (METAR i TAF).

Les estacions disponibles són els punts grocs i vermells al mapa.

Posi el ratolí al punt desitjat per veure el nom de l'estació.

Feu clic per veure les observacions i els pronòstics meteorològics.

Per canviar el mapa: feu clic els botons verds amb una creu de color negre per apropar; al botó verd amb un guió per allunyar la imatge; o en les fletxes verdes per a mapes adjacents.


METAR-TAF: